Tiempo atmosférico en la estación meteorológica de Castello d?Empuries, Girona (4 m.)



Fecha
DESCASC
Temp. máxima en grados centígrados (hora)
DESCASC
Temp. mínima en grados centígrados (hora)
DESCASC
Temp. media en grados centígrados
DESCASC
Racha de viento máxima en m/sg (hora)
DESCASC
Velocidad máxima media en intervalos de 10 minutos(hora)
DESCASC
Precipitaciones diarias en mm
DESCASC
Precipitaciones de 00:00 a 06:00 en mm
DESCASC
Precipitaciones de 06:00 a 12:00 en mm
DESCASC
Precipitaciones de 12:00 a 18:00 en mm
DESCASC
Precipitaciones de 18:00 a 24:00 en mm
DESCASC

Gráficas

Temp. máximas Temp. mínimas Temp. medias Precipitaciones Rachas de viento máximas Velocidades máximas media en intervalos de 10 minutos

Datos horarios

Fecha y hora oficial Temperatura (ºC) Velocidad del viento (km/h) Dirección del viento Racha (km/h) Dirección de racha Precipitación (mm) Presión (hPa) Tendencia (hPa) Humedad (%)
2019-10-17 23:00:00 16.1 4 Oeste 6 Oeste 0 -- -- 87
2019-10-17 22:00:00 17.6 4 Noroeste 8 Oeste 0 -- -- 82
2019-10-17 21:00:00 18.9 6 Este 17 Este 0 -- -- 89
2019-10-17 20:00:00 19.5 10 Este 21 Este 0 -- -- 78
2019-10-17 19:00:00 20.6 11 Nordeste 27 Nordeste 0 -- -- 76
2019-10-17 18:00:00 22.5 11 Sudeste 27 Sur 0 -- -- 62
2019-10-17 17:00:00 24.5 17 Sur 36 Sudeste 0 -- -- 61
2019-10-17 16:00:00 25.6 16 Sur 35 Sudeste 0 -- -- 61
2019-10-17 15:00:00 24.8 17 Sudeste 36 Sudeste 0 -- -- 56
2019-10-17 14:00:00 25.5 10 Sur 31 Sur 0 -- -- 49
2019-10-17 13:00:00 22.6 8 Sudeste 15 Sudeste 0 -- -- 65
2019-10-17 12:00:00 18.3 2 Sudeste 9 Sur 0 -- -- 72
2019-10-17 11:00:00 15.4 3 Noroeste 6 Norte 0 -- -- 83
2019-10-17 10:00:00 11.9 0 Calma 8 Oeste 0 -- -- 100
2019-10-17 09:00:00 9.7 3 Oeste 6 Noroeste 0 -- -- 100
2019-10-17 08:00:00 9.3 0 Calma 5 Noroeste 0 -- -- 100
2019-10-17 07:00:00 9.2 0 Calma 6 Oeste 0 -- -- 100
2019-10-17 06:00:00 9.4 2 Oeste 5 Sudoeste 0 -- -- 99
2019-10-17 05:00:00 9.8 3 Noroeste 5 Oeste 0 -- -- 99
2019-10-17 04:00:00 10.3 3 Oeste 5 Oeste 0 -- -- 98
2019-10-17 03:00:00 10.9 2 Sudoeste 6 Oeste 0 -- -- 97
2019-10-17 02:00:00 11.3 0 Calma 5 Oeste 0 -- -- 95
2019-10-17 01:00:00 12.3 4 Oeste 8 Oeste 0 -- -- 91
2019-10-17 00:00:00 13.1 3 Oeste 7 Noroeste 0 -- -- 89
2019-10-16 23:00:00 14 3 Noroeste 12 Oeste 0 -- -- 84
2019-10-16 22:00:00 14.4 6 Noroeste 10 Noroeste 0 -- -- 84
2019-10-16 21:00:00 15.9 4 Nordeste 9 Nordeste 0 -- -- 79
2019-10-16 20:00:00 16.9 5 Nordeste 11 Nordeste 0 -- -- 75
2019-10-16 19:00:00 18.6 7 Nordeste 22 Nordeste 0 -- -- 73
2019-10-16 18:00:00 20.2 9 Nordeste 23 Este 0 -- -- 68
2019-10-16 17:00:00 22.2 13 Este 26 Este 0 -- -- 63
2019-10-16 16:00:00 25.6 8 Sudoeste 22 Sudoeste 0 -- -- 34
2019-10-16 15:00:00 24.6 8 Sudoeste 26 Sudoeste 0 -- -- 34
2019-10-16 14:00:00 23.4 11 Sur 26 Sur 0 -- -- 39
2019-10-16 13:00:00 21.1 7 Sudeste 23 Sur 0 -- -- 53
2019-10-16 12:00:00 18.2 4 Oeste 11 Sur 0 -- -- 57
2019-10-16 11:00:00 15.1 5 Sur 10 Sudeste 0 -- -- 82
2019-10-16 10:00:00 11.6 4 Sudoeste 9 Oeste 0 -- -- 97
2019-10-16 09:00:00 9.6 0 Calma 8 Oeste 0 -- -- 100
2019-10-16 08:00:00 9 4 Oeste 7 Oeste 0 -- -- 99
2019-10-16 07:00:00 9.3 0 Calma -- -- 0 -- -- 98
2019-10-16 06:00:00 9.7 0 Calma 8 Oeste 0 -- -- 98
2019-10-16 05:00:00 10.1 3 Sudoeste 5 Sudoeste 0 -- -- 96
2019-10-16 04:00:00 10.8 3 Oeste 8 Oeste 0 -- -- 94
2019-10-16 03:00:00 11.4 3 Oeste 6 Noroeste 0 -- -- 93
2019-10-16 02:00:00 12.4 4 Oeste 7 Sudoeste 0 -- -- 90
2019-10-16 01:00:00 13.8 3 Oeste 8 Oeste 0 -- -- 88
2019-10-16 00:00:00 13.8 0 Calma -- -- 0 -- -- 92
2019-10-15 23:00:00 14.4 0 Calma -- -- 0 -- -- 85
2019-10-15 22:00:00 15.7 0 Calma -- -- 0 -- -- 81
2019-10-15 21:00:00 16.1 0 Calma 6 Sur 0 -- -- 79
2019-10-15 20:00:00 17 4 Sur 15 Sur 0 -- -- 71
2019-10-15 19:00:00 17.8 7 Sur 21 Sudeste 0 -- -- 68
2019-10-15 18:00:00 18.9 13 Sudeste 25 Sudeste 0 -- -- 65
2019-10-15 17:00:00 19.3 10 Sudeste 27 Sudeste 0 -- -- 63
2019-10-15 16:00:00 20.9 11 Sudeste 26 Sudeste 0 -- -- 61
2019-10-15 15:00:00 21.8 7 Este 22 Sur 0 -- -- 56
2019-10-15 14:00:00 21.6 5 Sudeste 19 Sudoeste 0 -- -- 56
2019-10-15 13:00:00 21.1 9 Sudoeste 21 Oeste 0 -- -- 55
2019-10-15 12:00:00 19.7 9 Oeste 22 Oeste 0 -- -- 56
2019-10-15 11:00:00 18.9 9 Oeste 20 Oeste 0 -- -- 51
2019-10-15 10:00:00 16.7 9 Noroeste 39 Norte 0 -- -- 58
2019-10-15 09:00:00 15.2 8 Noroeste 21 Noroeste 0 -- -- 71
2019-10-15 08:00:00 15.3 7 Noroeste 18 Noroeste 0 -- -- 84
2019-10-15 07:00:00 15.8 4 Oeste 12 Norte 0 -- -- 99
2019-10-15 06:00:00 16.2 0 Calma 6 Este 0 -- -- 100
2019-10-15 05:00:00 16.8 3 Oeste 10 Sudeste 0.4 -- -- 100
2019-10-15 04:00:00 17.1 7 Sur 17 Sudoeste 0.8 -- -- 98
2019-10-15 03:00:00 17.7 4 Oeste 9 Sur 0 -- -- 100
2019-10-15 02:00:00 17.9 7 Sur 18 Sur 0 -- -- 98
2019-10-15 01:00:00 17.5 8 Sur 18 Sur 0 -- -- 100
2019-10-15 00:00:00 17.9 0 Calma 5 Sur 0 -- -- 100
2019-10-14 23:00:00 18.5 0 Calma 8 Sudeste 0 -- -- 99
2019-10-14 22:00:00 19.7 0 Calma 20 Sudeste 0 -- -- 98
2019-10-14 21:00:00 20.8 14 Sudeste 24 Sudeste 0.4 -- -- 99
2019-10-14 20:00:00 20.9 8 Sudeste 18 Sudeste 0 -- -- 100
2019-10-14 19:00:00 21.1 9 Sudeste 24 Sudeste 0 -- -- 98
2019-10-14 18:00:00 22 11 Sudeste 19 Sudeste 0 -- -- 94
2019-10-14 17:00:00 22.5 9 Este 23 Este 0 -- -- 94
2019-10-14 16:00:00 23.4 9 Sudeste 23 Este 0 -- -- 90
2019-10-14 15:00:00 24 9 Sudeste 21 Nordeste 0 -- -- 89
2019-10-14 14:00:00 23.5 8 Sudeste 20 Sudeste 0 -- -- 89
2019-10-14 13:00:00 22.9 8 Sudeste 18 Sudeste 0 -- -- 90
2019-10-14 12:00:00 22 8 Sudeste 19 Sudeste 0 -- -- 96
2019-10-14 11:00:00 21.2 0 Calma 3 Sudeste 0 -- -- 99
2019-10-14 10:00:00 20.3 0 Calma 2 Sur 0 -- -- 100
2019-10-14 09:00:00 19.6 0 Calma 0 Calma 0 -- -- 100
2019-10-14 08:00:00 19.1 0 Calma 0 Calma 0 -- -- 100
2019-10-14 07:00:00 18.8 0 Calma 0 Calma 0 -- -- 100
2019-10-14 06:00:00 19.4 0 Calma 11 Sudeste 0 -- -- 100
2019-10-14 05:00:00 19.4 3 Sudeste 12 Sudeste 0 -- -- 100
2019-10-14 04:00:00 19.3 2 Sudeste 17 Sudeste 0 -- -- 100
2019-10-14 03:00:00 19 7 Sudeste 12 Sudeste 0 -- -- 100
2019-10-14 02:00:00 18.9 6 Sudeste 11 Sudeste 0 -- -- 100
2019-10-14 01:00:00 18.7 5 Sudeste 12 Sudeste 0 -- -- 100
2019-10-14 00:00:00 18.8 7 Sudeste 12 Sudeste 0 -- -- 100
2019-10-13 23:00:00 19.1 4 Sudeste 8 Sudeste 0 -- -- 100
2019-10-13 22:00:00 19.1 3 Sudeste 10 Sudeste 0 -- -- 99
2019-10-13 21:00:00 19.4 6 Sudeste 13 Sur 0 -- -- 97
2019-10-13 20:00:00 20 10 Sudeste 23 Sudeste 0 -- -- 97
2019-10-13 19:00:00 20.5 16 Sudeste 29 Sudeste 0 -- -- 94
2019-10-13 18:00:00 22 15 Sudeste 31 Sudeste 0 -- -- 87
2019-10-13 17:00:00 23.6 15 Sudeste 33 Sudeste 0 -- -- 83
2019-10-13 16:00:00 24.3 18 Sudeste 38 Sudeste 0 -- -- 81
2019-10-13 15:00:00 24 18 Sudeste 35 Sudeste 0 -- -- 83
2019-10-13 14:00:00 24.3 18 Sudeste 36 Sudeste 0 -- -- 83
2019-10-13 13:00:00 23.8 16 Sudeste 28 Sudeste 0 -- -- 85
2019-10-13 12:00:00 23.8 15 Sudeste 35 Sudeste 0 -- -- 83
2019-10-13 11:00:00 22.8 12 Sudeste 24 Sudeste 0 -- -- 87
2019-10-13 10:00:00 21.5 10 Sudeste 19 Sudeste 0 -- -- 96
2019-10-13 09:00:00 18.9 0 Calma 8 Sur 0 -- -- 98
2019-10-13 08:00:00 19.3 4 Sudoeste 15 Sudeste 0 -- -- 99
2019-10-13 07:00:00 19.6 8 Sudeste 17 Sudeste 0 -- -- 100
2019-10-13 06:00:00 18.9 7 Sudeste 13 Sudeste 0 -- -- 100
2019-10-13 05:00:00 19 3 Sudeste 8 Sur 0 -- -- 100
2019-10-13 04:00:00 18.8 0 Calma 6 Sudeste 0 -- -- 100
2019-10-13 03:00:00 18.6 0 Calma 4 Sudoeste 0 -- -- 100
2019-10-13 02:00:00 18.5 0 Calma 5 Sudeste 0 -- -- 99
2019-10-13 01:00:00 18.7 3 Sudeste 11 Sudeste 0 -- -- 99
2019-10-13 00:00:00 18.3 6 Sudeste 9 Sudeste 0 -- -- 99
2019-10-12 23:00:00 18.5 4 Sudeste 12 Sudeste 0 -- -- 95
2019-10-12 22:00:00 19.3 6 Sudeste 13 Sudeste 0 -- -- 93
2019-10-12 21:00:00 19.9 9 Sudeste 17 Sudeste 0 -- -- 90
2019-10-12 20:00:00 20.3 9 Sur 21 Sur 0 -- -- 87
2019-10-12 19:00:00 21.4 12 Sudeste 33 Sudeste 0 -- -- 81
2019-10-12 18:00:00 22 18 Sudeste 40 Sudeste 0 -- -- 82
2019-10-12 17:00:00 24.8 19 Sudeste 41 Sudeste 0 -- -- 67
2019-10-12 16:00:00 24 20 Sudeste 40 Sudeste 0 -- -- 75
2019-10-12 15:00:00 25 22 Sudeste 42 Sudeste 0 -- -- 69
2019-10-12 14:00:00 24.4 18 Sur 32 Sudeste 0 -- -- 70
2019-10-12 13:00:00 24.4 18 Sur 39 Sur 0 -- -- 74
2019-10-12 12:00:00 23.6 15 Sur 35 Sudeste 0 -- -- 78
2019-10-12 11:00:00 22.2 14 Sur 32 Sudeste 0 -- -- 89
2019-10-12 10:00:00 20.7 12 Sur 25 Sudeste 0 -- -- 100
2019-10-12 09:00:00 18.7 8 Sur 18 Sudeste 0 -- -- 100
2019-10-12 08:00:00 14.6 3 Noroeste 6 Noroeste 0 -- -- 100
2019-10-12 07:00:00 14.3 0 Calma 8 Noroeste 0 -- -- 100
2019-10-12 06:00:00 14.7 2 Norte 8 Noroeste 0 -- -- 100
2019-10-12 05:00:00 15 2 Sur 8 Sudoeste 0 -- -- 100
2019-10-12 04:00:00 15.2 2 Norte 13 Sudoeste 0 -- -- 99
2019-10-12 03:00:00 15.7 0 Calma 5 Este 0 -- -- 99
2019-10-12 02:00:00 16.3 3 Sudeste 5 Sudeste 0 -- -- 98
2019-10-12 01:00:00 17 3 Oeste 6 Sudoeste 0 -- -- 97
2019-10-12 00:00:00 17.8 3 Sudoeste 6 Sudoeste 0 -- -- 96
2019-10-11 23:00:00 18.5 3 Sudoeste 5 Oeste 0 -- -- 94
2019-10-11 22:00:00 18.4 0 Calma 5 Sudoeste 0 -- -- 96
2019-10-11 21:00:00 19.4 2 Oeste 6 Noroeste 0 -- -- 90
2019-10-11 20:00:00 20.6 3 Norte 12 Norte 0 -- -- 88
2019-10-11 19:00:00 21.3 6 Nordeste 14 Nordeste 0 -- -- 86
2019-10-11 18:00:00 22.5 8 Nordeste 19 Nordeste 0 -- -- 84
2019-10-11 17:00:00 23.1 11 Este 19 Este 0 -- -- 81
2019-10-11 16:00:00 23.4 10 Este 21 Este 0 -- -- 81
2019-10-11 15:00:00 23.2 11 Este 22 Este 0 -- -- 83
2019-10-11 14:00:00 22.7 10 Este 21 Este 0 -- -- 82
2019-10-11 13:00:00 21.4 7 Este 16 Sudeste 0 -- -- 79
2019-10-11 12:00:00 19.6 6 Sudeste 11 Este 0 -- -- 78
2019-10-11 11:00:00 16.8 2 Nordeste 6 Norte 0 -- -- 79
2019-10-11 10:00:00 13.4 4 Noroeste 8 Noroeste 0 -- -- 90
2019-10-11 09:00:00 10.7 0 Calma 3 Noroeste 0 -- -- 100
2019-10-11 08:00:00 10 0 Calma 6 Oeste 0 -- -- 98
2019-10-11 07:00:00 10.1 4 Oeste 6 Oeste 0 -- -- 97
2019-10-11 06:00:00 10.9 3 Oeste 7 Oeste 0 -- -- 95
2019-10-11 05:00:00 11.3 5 Oeste 9 Oeste 0 -- -- 94
2019-10-11 04:00:00 11.7 4 Noroeste 8 Oeste 0 -- -- 92
2019-10-11 03:00:00 12.1 4 Oeste 8 Noroeste 0 -- -- 91
2019-10-11 02:00:00 12.9 3 Noroeste 8 Noroeste 0 -- -- 90
2019-10-11 01:00:00 13.5 4 Oeste 7 Noroeste 0 -- -- 87
2019-10-11 00:00:00 14.7 5 Oeste 8 Oeste 0 -- -- 87
2019-10-10 23:00:00 15.7 3 Norte 5 Noroeste 0 -- -- 84
2019-10-10 22:00:00 15.5 4 Noroeste 8 Norte 0 -- -- 84
2019-10-10 21:00:00 16.2 4 Sudoeste 10 Sudoeste 0 -- -- 81
2019-10-10 20:00:00 17.5 4 Sudoeste 8 Sudoeste 0 -- -- 75
2019-10-10 19:00:00 19.9 0 Calma 10 Este 0 -- -- 66
2019-10-10 18:00:00 21.9 6 Nordeste 19 Nordeste 0 -- -- 56
2019-10-10 17:00:00 22.9 9 Este 21 Nordeste 0 -- -- 52
2019-10-10 16:00:00 24 9 Sudeste 18 Sudeste 0 -- -- 53
2019-10-10 15:00:00 22.8 7 Este 16 Sudeste 0 -- -- 53
2019-10-10 14:00:00 22.4 8 Este 18 Este 0 -- -- 55
2019-10-10 13:00:00 22 6 Este 15 Este 0 -- -- 57
2019-10-10 12:00:00 19.2 2 Nordeste 7 Noroeste 0 -- -- 58
2019-10-10 11:00:00 18.1 0 Calma 8 Norte 0 -- -- 63
2019-10-10 10:00:00 18.2 0 Calma 15 Norte 0 -- -- 63
2019-10-10 09:00:00 17.4 4 Norte 10 Noroeste 0 -- -- 66
2019-10-10 08:00:00 17.2 4 Noroeste 10 Noroeste 0 -- -- 67
2019-10-10 07:00:00 17.1 4 Noroeste 9 Noroeste 0 -- -- 69
2019-10-10 06:00:00 17.1 3 Noroeste 13 Noroeste 0 -- -- 70
2019-10-10 05:00:00 16.9 4 Noroeste 5 Noroeste 0 -- -- 73
2019-10-10 04:00:00 17.4 2 Noroeste 8 Noroeste 0 -- -- 67
2019-10-10 03:00:00 17.7 4 Oeste 10 Oeste 0 -- -- 66
2019-10-10 02:00:00 18.1 4 Oeste 11 Oeste 0 -- -- 67
2019-10-10 01:00:00 18.4 3 Noroeste 11 Noroeste 0 -- -- 66
2019-10-10 00:00:00 18.6 4 Norte 17 Noroeste 0 -- -- 64
2019-10-09 23:00:00 18.9 6 Noroeste 16 Noroeste 0 -- -- 63
2019-10-09 22:00:00 18.1 0 Calma 10 Noroeste 0 -- -- 74
2019-10-09 21:00:00 18 3 Sudoeste 6 Sudoeste 0 -- -- 77
2019-10-09 20:00:00 18.3 0 Calma 4 Sudoeste 0 -- -- 76
2019-10-09 19:00:00 19.1 0 Calma 4 Norte 0 -- -- 74
2019-10-09 18:00:00 19.9 4 Norte 17 Nordeste 0 -- -- 67
2019-10-09 17:00:00 20.5 6 Norte 15 Norte 0 -- -- 63
2019-10-09 16:00:00 21 5 Norte 22 Norte 0 -- -- 63
2019-10-09 15:00:00 21.9 6 Noroeste 13 Noroeste 0 -- -- 65
2019-10-09 14:00:00 23.1 6 Nordeste 14 Nordeste 0 -- -- 67
2019-10-09 13:00:00 22.3 6 Este 18 Sudeste 0 -- -- 70
2019-10-09 12:00:00 21.8 8 Sudeste 15 Este 0 -- -- 82
2019-10-09 11:00:00 20.2 4 Sudeste 8 Sudeste 0 -- -- 84
2019-10-09 10:00:00 16.5 3 Oeste 8 Noroeste 0 -- -- 96
2019-10-09 09:00:00 14 4 Noroeste 9 Oeste 0 -- -- 100
2019-10-09 08:00:00 13 0 Calma 5 Sudoeste 0 -- -- 100
2019-10-09 07:00:00 13.4 3 Oeste 4 Oeste 0 -- -- 100
2019-10-09 06:00:00 13.7 0 Calma 4 Oeste 0 -- -- 99
2019-10-09 05:00:00 14.3 0 Calma 5 Oeste 0 -- -- 98
2019-10-09 04:00:00 14.7 3 Oeste 6 Oeste 0 -- -- 98
2019-10-09 03:00:00 15.3 0 Calma 8 Noroeste 0 -- -- 97
2019-10-09 02:00:00 15.9 0 Calma 6 Noroeste 0 -- -- 96
2019-10-09 01:00:00 16.2 3 Oeste 7 Oeste 0 -- -- 95
2019-10-09 00:00:00 16.8 4 Oeste 7 Sudoeste 0 -- -- 94
2019-10-08 23:00:00 17.5 0 Calma 5 Noroeste 0 -- -- 92
2019-10-08 22:00:00 18.9 0 Calma 6 Oeste 0 -- -- 87
2019-10-08 21:00:00 20 4 Noroeste 12 Este 0 -- -- 84
2019-10-08 20:00:00 20.8 5 Este 12 Nordeste 0 -- -- 83
2019-10-08 19:00:00 23.3 6 Este 14 Sudeste 0 -- -- 75
2019-10-08 18:00:00 25 8 Sudeste 21 Este 0 -- -- 66
2019-10-08 17:00:00 24.2 12 Este 25 Este 0 -- -- 70
2019-10-08 16:00:00 23.1 12 Este 26 Este 0 -- -- 76
2019-10-08 15:00:00 23 10 Este 25 Sudeste 0 -- -- 77
2019-10-08 14:00:00 22.5 10 Sudeste 23 Sudeste 0 -- -- 71
2019-10-08 13:00:00 22.6 8 Sudeste 16 Este 0 -- -- 60
2019-10-08 12:00:00 20.9 5 Este 9 Sudeste 0 -- -- 61
2019-10-08 11:00:00 18.9 2 Noroeste 7 Oeste 0 -- -- 62
2019-10-08 10:00:00 15.7 4 Noroeste 8 Noroeste 0 -- -- 75
2019-10-08 09:00:00 13.2 0 Calma 5 Noroeste 0 -- -- 84
2019-10-08 08:00:00 12.4 3 Oeste 5 Oeste 0 -- -- 86
2019-10-08 07:00:00 12.4 2 Sudoeste 8 Oeste 0 -- -- 84
2019-10-08 06:00:00 11.6 5 Oeste 9 Noroeste 0 -- -- 84
2019-10-08 05:00:00 11.4 3 Oeste 6 Oeste 0 -- -- 88
2019-10-08 04:00:00 11.7 4 Oeste 8 Oeste 0 -- -- 87
2019-10-08 03:00:00 11.8 3 Sudoeste 9 Sudoeste 0 -- -- 86
2019-10-08 02:00:00 11.9 5 Sudoeste 8 Sudoeste 0 -- -- 84
2019-10-08 01:00:00 12.3 3 Nordeste 10 Sur 0 -- -- 78
2019-10-08 00:00:00 14.4 5 Oeste 13 Oeste 0 -- -- 66
2019-10-07 23:00:00 15.1 4 Oeste 12 Sudoeste 0 -- -- 63
2019-10-07 22:00:00 16.4 4 Sudoeste 17 Norte 0 -- -- 57
2019-10-07 21:00:00 19.2 14 Norte 33 Norte 0 -- -- 46
2019-10-07 20:00:00 20 18 Norte 33 Norte 0 -- -- 42
2019-10-07 19:00:00 21.7 17 Norte 39 Norte 0 -- -- 35
2019-10-07 18:00:00 23.4 26 Norte 45 Norte 0 -- -- 29
2019-10-07 17:00:00 23.6 26 Norte 49 Norte 0 -- -- 27
2019-10-07 16:00:00 23.8 27 Norte 58 Noroeste 0 -- -- 29
2019-10-07 15:00:00 23.7 28 Noroeste 66 Norte 0 -- -- 31
2019-10-07 14:00:00 22.5 33 Norte 61 Noroeste 0 -- -- 32
2019-10-07 13:00:00 21.5 43 Norte 67 Noroeste 0 -- -- 36
2019-10-07 12:00:00 21.5 35 Noroeste 67 Norte 0 -- -- 35
2019-10-07 11:00:00 20.2 28 Noroeste 59 Norte 0 -- -- 43
2019-10-07 10:00:00 18.6 27 Noroeste 62 Noroeste 0 -- -- 49
2019-10-07 09:00:00 17.9 35 Norte 63 Norte 0 -- -- 51
2019-10-07 08:00:00 16.7 28 Norte 49 Norte 0 -- -- 57
2019-10-07 07:00:00 16.8 15 Norte 51 Noroeste 0 -- -- 58
2019-10-07 06:00:00 17.2 26 Norte 69 Norte 0 -- -- 56
2019-10-07 05:00:00 17.1 34 Norte 63 Norte 0 -- -- 57
2019-10-07 04:00:00 17.3 27 Norte 50 Norte 0 -- -- 55
2019-10-07 03:00:00 18 13 Noroeste 38 Norte 0 -- -- 54
2019-10-07 02:00:00 18.4 19 Noroeste 35 Noroeste 0 -- -- 56
2019-10-07 01:00:00 18.3 14 Noroeste 39 Noroeste 0 -- -- 62
2019-10-07 00:00:00 19.5 23 Noroeste 45 Noroeste 0 -- -- 61
2019-10-06 23:00:00 18.2 4 Noroeste 14 Noroeste 0 -- -- 79
2019-10-06 22:00:00 17.9 0 Calma -- -- 0 -- -- 88
2019-10-06 21:00:00 17.7 0 Calma 4 Norte 0 -- -- 87
2019-10-06 20:00:00 18.2 0 Calma 5 Sudeste 0 -- -- 82
2019-10-06 19:00:00 19.6 2 Sudeste 11 Sudeste 0 -- -- 77
2019-10-06 18:00:00 20.7 5 Sur 15 Sudeste 0 -- -- 73
2019-10-06 17:00:00 21.3 9 Sudeste 19 Sudeste 0 -- -- 72
2019-10-06 16:00:00 21.7 10 Sudeste 19 Sudeste 0 -- -- 70
2019-10-06 15:00:00 21.9 6 Sudeste 17 Este 0 -- -- 67
2019-10-06 14:00:00 23 6 Este 19 Sudeste 0 -- -- 62
2019-10-06 13:00:00 22.9 6 Sudeste 15 Oeste 0 -- -- 60
2019-10-06 12:00:00 22.3 6 Oeste 15 Noroeste 0 -- -- 56
2019-10-06 11:00:00 19.7 6 Oeste 10 Oeste 0 -- -- 69
2019-10-06 10:00:00 17.9 0 Calma 0 Calma 0 -- -- 81
2019-10-06 09:00:00 16.3 0 Calma 0 Calma 0 -- -- 93
2019-10-06 08:00:00 15.7 0 Calma 0 Calma 0 -- -- 93
2019-10-06 07:00:00 15.2 0 Calma 0 Calma 0 -- -- 97
2019-10-06 06:00:00 14.5 0 Calma 4 Este 0 -- -- 98
2019-10-06 05:00:00 14.1 0 Calma 4 Norte 0 -- -- 97
2019-10-06 04:00:00 13.5 2 Oeste 6 Sudoeste 0 -- -- 96
2019-10-06 03:00:00 13.4 4 Noroeste 6 Noroeste 0 -- -- 95
2019-10-06 02:00:00 13.6 3 Noroeste 7 Noroeste 0 -- -- 96
2019-10-06 01:00:00 13.5 2 Nordeste 8 Norte 0 -- -- 94
2019-10-06 00:00:00 14.3 3 Sudoeste 8 Oeste 0 -- -- 92
2019-10-05 23:00:00 15 4 Sudoeste 6 Oeste 0 -- -- 92
2019-10-05 22:00:00 16 0 Calma 5 Nordeste 0 -- -- 87
2019-10-05 21:00:00 17.3 2 Nordeste 7 Este 0 -- -- 81
2019-10-05 20:00:00 19.3 4 Sur 11 Sur 0 -- -- 73
2019-10-05 19:00:00 22 5 Sur 13 Sur 0 -- -- 67
2019-10-05 18:00:00 23.4 5 Sudeste 16 Este 0 -- -- 59
2019-10-05 17:00:00 23.3 5 Este 14 Sudeste 0 -- -- 60
2019-10-05 16:00:00 23 7 Este 17 Nordeste 0 -- -- 58
2019-10-05 15:00:00 24.1 6 Este 21 Sudeste 0 -- -- 55
2019-10-05 14:00:00 24.2 10 Sudeste 18 Sudeste 0 -- -- 59
2019-10-05 13:00:00 22.7 6 Norte 13 Norte 0 -- -- 57
2019-10-05 12:00:00 21.7 4 Noroeste 12 Noroeste 0 -- -- 59
2019-10-05 11:00:00 20.2 4 Norte 9 Norte 0 -- -- 66
2019-10-05 10:00:00 19.2 4 Norte 11 Noroeste 0 -- -- 70
2019-10-05 09:00:00 17.8 8 Norte 14 Noroeste 0 -- -- 77
2019-10-05 08:00:00 16.9 3 Noroeste 5 Oeste 0 -- -- 87
2019-10-05 07:00:00 16.8 4 Oeste 8 Noroeste 0 -- -- 86
2019-10-05 06:00:00 16.4 3 Noroeste 8 Noroeste 0 -- -- 88
2019-10-05 05:00:00 15.7 0 Calma 7 Noroeste 0 -- -- 89
2019-10-05 04:00:00 15.4 4 Oeste 6 Sudoeste 0 -- -- 88
2019-10-05 03:00:00 17.1 0 Calma 14 Noroeste 0 -- -- 82
2019-10-05 02:00:00 17.9 5 Noroeste 18 Oeste 0 -- -- 81
2019-10-05 01:00:00 17.9 8 Noroeste 18 Noroeste 0 -- -- 86
2019-10-05 00:00:00 18.3 3 Noroeste 5 Noroeste 0 -- -- 95
2019-10-04 23:00:00 19.1 3 Sudoeste 6 Este 0 -- -- 95
2019-10-04 22:00:00 19.3 0 Calma 11 Sudeste 0 -- -- 93
2019-10-04 21:00:00 19.7 5 Sudeste 12 Sudeste 0 -- -- 92
2019-10-04 20:00:00 20.4 5 Este 13 Este 0 -- -- 88
2019-10-04 19:00:00 20.9 8 Este 18 Este 0 -- -- 86
2019-10-04 18:00:00 22.5 6 Sudeste 24 Sudeste 0 -- -- 81
2019-10-04 17:00:00 24 7 Sudeste 23 Sudeste 0 -- -- 74
2019-10-04 16:00:00 23.9 12 Sudeste 27 Sudeste 0 -- -- 73
2019-10-04 15:00:00 22.3 9 Este 22 Este 0 -- -- 74
2019-10-04 14:00:00 22.5 8 Este 17 Sudeste 0 -- -- 69
2019-10-04 13:00:00 22.4 6 Sudeste 14 Este 0 -- -- 66
2019-10-04 12:00:00 20.8 5 Sudeste 12 Sudeste 0 -- -- 72
2019-10-04 11:00:00 17.9 0 Calma 0 Calma 0 -- -- 79
2019-10-04 10:00:00 14.8 0 Calma 0 Calma 0 -- -- 90
2019-10-04 09:00:00 11.9 0 Calma 0 Calma 0 -- -- 100
2019-10-04 08:00:00 10.3 0 Calma 0 Calma 0 -- -- 100
2019-10-04 07:00:00 10.5 0 Calma 2 Oeste 0 -- -- 99
2019-10-04 06:00:00 10.8 0 Calma 8 Oeste 0 -- -- 99
2019-10-04 05:00:00 11.1 0 Calma 5 Oeste 0 -- -- 98
2019-10-04 04:00:00 11.7 3 Noroeste 6 Noroeste 0 -- -- 97
2019-10-04 03:00:00 12.2 3 Nordeste 8 Sudoeste 0 -- -- 94
2019-10-04 02:00:00 12.8 4 Oeste 12 Sudoeste 0 -- -- 94
2019-10-04 01:00:00 13 0 Calma 10 Oeste 0 -- -- 95
2019-10-04 00:00:00 13.8 3 Sur 7 Sur 0 -- -- 95
2019-10-03 23:00:00 14.1 5 Sudeste 8 Sudeste 0 -- -- 92
2019-10-03 22:00:00 15.4 3 Oeste 8 Sudoeste 0 -- -- 88
2019-10-03 21:00:00 16.2 2 Oeste 5 Noroeste 0 -- -- 82
2019-10-03 20:00:00 18.2 3 Sudoeste 10 Sur 0 -- -- 74
2019-10-03 19:00:00 21.1 7 Sudeste 22 Sudeste 0 -- -- 63
2019-10-03 18:00:00 22.8 14 Sudeste 28 Sudeste 0 -- -- 56
2019-10-03 17:00:00 23.7 16 Sudeste 32 Sudeste 0 -- -- 56
2019-10-03 16:00:00 25 9 Sudeste 20 Este 0 -- -- 46
2019-10-03 15:00:00 23.6 4 Nordeste 15 Este 0 -- -- 44
2019-10-03 14:00:00 22.6 6 Noroeste 15 Oeste 0 -- -- 47
2019-10-03 13:00:00 22.5 6 Sudoeste 19 Noroeste 0 -- -- 49
2019-10-03 12:00:00 20.6 8 Noroeste 23 Noroeste 0 -- -- 56
2019-10-03 11:00:00 19.5 7 Noroeste 26 Noroeste 0 -- -- 57
2019-10-03 10:00:00 18.4 17 Noroeste 34 Noroeste 0 -- -- 58
2019-10-03 09:00:00 17.3 9 Noroeste 23 Noroeste 0 -- -- 65
2019-10-03 08:00:00 16.3 5 Sur 44 Noroeste 0 -- -- 70
2019-10-03 07:00:00 17.2 23 Norte 47 Norte 0 -- -- 65
2019-10-03 06:00:00 17.4 30 Norte 42 Norte 0 -- -- 64
2019-10-03 05:00:00 17.8 18 Norte 37 Norte 0 -- -- 62
2019-10-03 04:00:00 18 23 Norte 40 Norte 0 -- -- 61
2019-10-03 03:00:00 18.2 24 Norte 41 Norte 0 -- -- 62
2019-10-03 02:00:00 18.6 22 Norte 40 Noroeste 0 -- -- 62
2019-10-03 01:00:00 18.8 18 Norte 32 Norte 0 -- -- 61
2019-10-03 00:00:00 19.5 18 Norte 36 Noroeste 0 -- -- 58
2019-10-02 23:00:00 20.2 15 Norte 31 Norte 0 -- -- 56
2019-10-02 22:00:00 20.2 16 Noroeste 42 Norte 0 -- -- 55
2019-10-02 21:00:00 20.6 20 Noroeste 53 Norte 0 -- -- 55
2019-10-02 20:00:00 21 22 Norte 40 Norte 0 -- -- 54
2019-10-02 19:00:00 21.7 14 Noroeste 45 Norte 0 -- -- 52
2019-10-02 18:00:00 22.5 22 Noroeste 47 Noroeste 0 -- -- 51
2019-10-02 17:00:00 23.7 27 Norte 52 Norte 0 -- -- 51
2019-10-02 16:00:00 23.1 26 Noroeste 46 Noroeste 0 -- -- 54
2019-10-02 15:00:00 23.6 22 Noroeste 48 Noroeste 0 -- -- 53
2019-10-02 14:00:00 24 19 Noroeste 42 Norte 0 -- -- 55
2019-10-02 13:00:00 23.3 23 Norte 37 Norte 0 -- -- 58
2019-10-02 12:00:00 23.5 14 Norte 32 Norte 0 -- -- 56
2019-10-02 11:00:00 22.1 15 Noroeste 26 Norte 0 -- -- 57
2019-10-02 10:00:00 20.1 7 Noroeste 20 Noroeste 0 -- -- 61
2019-10-02 09:00:00 17.9 8 Oeste 21 Noroeste 0 -- -- 71
2019-10-02 08:00:00 17.7 8 Noroeste 26 Noroeste 0 -- -- 70
2019-10-02 07:00:00 16.8 7 Noroeste 17 Noroeste 0 -- -- 74
2019-10-02 06:00:00 18 8 Noroeste 18 Noroeste 0 -- -- 72
2019-10-02 05:00:00 17 8 Noroeste 22 Noroeste 0 -- -- 85
2019-10-02 04:00:00 16.7 7 Sudoeste 29 Noroeste 1.6 -- -- 91
2019-10-02 03:00:00 17.7 8 Noroeste 30 Norte 0.2 -- -- 81
2019-10-02 02:00:00 17.3 24 Norte 40 Norte 1.6 -- -- 88
2019-10-02 01:00:00 18.5 18 Norte 32 Norte 0.8 -- -- 82
2019-10-02 00:00:00 18.2 10 Norte 21 Norte 0 -- -- 89
2019-10-01 23:00:00 17.5 5 Norte 51 Noroeste 7.6 -- -- 98
2019-10-01 22:00:00 21.5 17 Noroeste 39 Noroeste 0 -- -- 72
2019-10-01 21:00:00 20.2 3 Noroeste 9 Nordeste 0 -- -- 91
2019-10-01 20:00:00 21.2 5 Este 14 Este 0 -- -- 89
2019-10-01 19:00:00 22 6 Este 16 Este 0 -- -- 93
2019-10-01 18:00:00 22.8 9 Este 22 Este 0 -- -- 89
2019-10-01 17:00:00 23.8 10 Este 21 Este 0 -- -- 84
2019-10-01 16:00:00 25.1 10 Este 26 Sudeste 0 -- -- 78
2019-10-01 15:00:00 25.1 10 Sudeste 22 Sudeste 0 -- -- 74
2019-10-01 14:00:00 24.7 8 Sudeste 17 Sudeste 0 -- -- 73
2019-10-01 13:00:00 24.7 4 Sudeste 16 Este 0 -- -- 72
2019-10-01 12:00:00 23.6 0 Calma 2 Sudeste 0 -- -- 77
2019-10-01 11:00:00 20.8 0 Calma 0 Calma 0 -- -- 87
2019-10-01 10:00:00 17.6 0 Calma 2 Oeste 0 -- -- 99
2019-10-01 09:00:00 15.3 0 Calma 0 Calma 0 -- -- 100
2019-10-01 08:00:00 14.3 0 Calma 2 Oeste 0 -- -- 100
2019-10-01 07:00:00 14.8 0 Calma 0 Calma 0 -- -- 100
2019-10-01 06:00:00 14.7 0 Calma 0 Calma 0 -- -- 100
2019-10-01 05:00:00 15 0 Calma 0 Calma 0 -- -- 100
2019-10-01 04:00:00 15.8 3 Sudoeste 6 Oeste 0 -- -- 99
2019-10-01 03:00:00 16.3 3 Oeste 6 Noroeste 0 -- -- 99
2019-10-01 02:00:00 16.7 0 Calma 0 Calma 0 -- -- 100
2019-10-01 01:00:00 17 0 Calma -- -- 0 -- -- 99
2019-10-01 00:00:00 17.5 0 Calma -- -- 0 -- -- 98
2019-09-30 23:00:00 18.4 0 Calma -- -- 0 -- -- 97
2019-09-30 22:00:00 19.3 2 Oeste 9 Noroeste 0 -- -- 97
2019-09-30 21:00:00 20 0 Calma 11 Este 0 -- -- 95
2019-09-30 20:00:00 20.6 8 Este 21 Este 0 -- -- 95
2019-09-30 19:00:00 21.9 11 Este 22 Nordeste 0 -- -- 87
2019-09-30 18:00:00 24.2 12 Sudeste 27 Sudeste 0 -- -- 75
2019-09-30 17:00:00 25.6 12 Sudeste 27 Sudeste 0 -- -- 68
2019-09-30 16:00:00 26.1 13 Sudeste 30 Este 0 -- -- 65
2019-09-30 15:00:00 25.3 15 Sudeste 31 Sudeste 0 -- -- 67
2019-09-30 14:00:00 25.6 13 Sudeste 24 Sudeste 0 -- -- 65
2019-09-30 13:00:00 25.1 6 Este 15 Este 0 -- -- 64
2019-09-30 12:00:00 24.1 6 Este 12 Este 0 -- -- 69
2019-09-30 11:00:00 21.5 0 Calma 5 Sur 0 -- -- 74
2019-09-30 10:00:00 17.9 0 Calma 5 Norte 0 -- -- 87
2019-09-30 09:00:00 15 2 Sudoeste 5 Sudoeste 0 -- -- 100
2019-09-30 08:00:00 14 2 Oeste 6 Sudoeste 0 -- -- 99
2019-09-30 07:00:00 14.7 2 Sudoeste 8 Sudoeste 0 -- -- 98
2019-09-30 06:00:00 15.2 0 Calma 10 Sur 0 -- -- 96
2019-09-30 05:00:00 15.4 5 Sudoeste 10 Sur 0 -- -- 98
2019-09-30 04:00:00 15.7 4 Sudoeste 10 Sudoeste 0 -- -- 100
2019-09-30 03:00:00 15.5 5 Sudoeste 9 Sudoeste 0 -- -- 100
2019-09-30 02:00:00 15.8 0 Calma 6 Oeste 0 -- -- 98
2019-09-30 01:00:00 16.3 5 Oeste 7 Sudoeste 0 -- -- 98
2019-09-30 00:00:00 17 5 Noroeste 9 Noroeste 0 -- -- 98
2019-09-29 23:00:00 17.4 3 Noroeste 6 Oeste 0 -- -- 95
2019-09-29 22:00:00 18.2 3 Oeste 6 Oeste 0 -- -- 92
2019-09-29 21:00:00 19.4 4 Noroeste 6 Noroeste 0 -- -- 90
2019-09-29 20:00:00 20.9 3 Este 9 Este 0 -- -- 84
2019-09-29 19:00:00 22.6 7 Este 21 Este 0 -- -- 77
2019-09-29 18:00:00 23.8 9 Este 23 Este 0 -- -- 76
2019-09-29 17:00:00 24.8 8 Este 22 Este 0 -- -- 76
2019-09-29 16:00:00 24.6 8 Este 22 Este 0 -- -- 72
2019-09-29 15:00:00 24.3 9 Este 19 Este 0 -- -- 72
2019-09-29 14:00:00 24 7 Sudeste 16 Este 0 -- -- 73
2019-09-29 13:00:00 23.3 8 Este 15 Este 0 -- -- 73
2019-09-29 12:00:00 22.2 5 Este 10 Sudeste 0 -- -- 72
2019-09-29 11:00:00 19.5 0 Calma 8 Oeste 0 -- -- 77
2019-09-29 10:00:00 16.2 4 Oeste 9 Oeste 0 -- -- 93
2019-09-29 09:00:00 13.4 4 Oeste 8 Oeste 0 -- -- 100
2019-09-29 08:00:00 12.4 4 Oeste 7 Oeste 0 -- -- 99
2019-09-29 07:00:00 12.7 4 Noroeste 6 Noroeste 0 -- -- 98
2019-09-29 06:00:00 12.9 3 Oeste 5 Noroeste 0 -- -- 98
2019-09-29 05:00:00 13.2 2 Oeste 5 Oeste 0 -- -- 96
2019-09-29 04:00:00 13.8 3 Oeste 8 Noroeste 0 -- -- 95
2019-09-29 03:00:00 14.2 4 Oeste 7 Noroeste 0 -- -- 94
2019-09-29 02:00:00 14.6 4 Noroeste 7 Noroeste 0 -- -- 93
2019-09-29 01:00:00 15.2 3 Noroeste 6 Oeste 0 -- -- 94
2019-09-29 00:00:00 15.8 3 Oeste 6 Oeste 0 -- -- 94
2019-09-28 23:00:00 16.6 0 Calma 5 Noroeste 0 -- -- 91
2019-09-28 22:00:00 17.4 4 Noroeste 5 Noroeste 0 -- -- 87
2019-09-28 21:00:00 18.2 4 Sur 9 Sudeste 0 -- -- 86
2019-09-28 20:00:00 19.9 5 Sudeste 14 Sudeste 0 -- -- 78
2019-09-28 19:00:00 22.2 8 Sudeste 17 Sudeste 0 -- -- 69
2019-09-28 18:00:00 24 9 Sudeste 19 Este 0 -- -- 69
2019-09-28 17:00:00 24.9 8 Sudeste 24 Este 0 -- -- 66
2019-09-28 16:00:00 24.9 13 Este 24 Este 0 -- -- 57
2019-09-28 15:00:00 25.3 10 Este 21 Este 0 -- -- 59
2019-09-28 14:00:00 25.5 9 Sudeste 17 Sudeste 0 -- -- 60
2019-09-28 13:00:00 24.9 8 Este 18 Este 0 -- -- 59
2019-09-28 12:00:00 24.2 0 Calma 0 Calma 0 -- -- 62
2019-09-28 11:00:00 23 0 Calma 0 Calma 0 -- -- 66
2019-09-28 10:00:00 20.7 0 Calma 0 Calma 0 -- -- 87
2019-09-28 09:00:00 18.4 0 Calma 0 Calma 0 -- -- 100
2019-09-28 08:00:00 17.4 0 Calma 0 Calma 0 -- -- 99
2019-09-28 07:00:00 17.6 0 Calma 0 Calma 0 -- -- 98
2019-09-28 06:00:00 17.8 0 Calma 6 Sur 0 -- -- 99
2019-09-28 05:00:00 18 0 Calma 6 Norte 0 -- -- 99
2019-09-28 04:00:00 18.5 0 Calma 6 Sudeste 0 -- -- 99
2019-09-28 03:00:00 18.9 4 Sur 6 Sur 0 -- -- 98
2019-09-28 02:00:00 19.5 0 Calma 8 Sudoeste 0 -- -- 97
2019-09-28 01:00:00 19.8 0 Calma 4 Oeste 0 -- -- 96
2019-09-28 00:00:00 19.9 2 Oeste 4 Sudoeste 0 -- -- 97
2019-09-27 23:00:00 20.2 0 Calma 5 Sudoeste 0 -- -- 94
2019-09-27 22:00:00 20.6 0 Calma 4 Sudoeste 0 -- -- 93
2019-09-27 21:00:00 21.2 3 Oeste 5 Sudoeste 0 -- -- 91
2019-09-27 20:00:00 21.6 0 Calma 9 Este 0 -- -- 88
2019-09-27 19:00:00 21.9 4 Sudeste 19 Este 0 -- -- 84
2019-09-27 18:00:00 22.4 6 Este 22 Este 0 -- -- 77
2019-09-27 17:00:00 23.5 10 Este 22 Este 0 -- -- 74
2019-09-27 16:00:00 24.5 10 Sudeste 26 Este 0 -- -- 72
2019-09-27 15:00:00 24.5 9 Sudeste 23 Este 0 -- -- 69
2019-09-27 14:00:00 25.2 9 Sudeste 18 Este 0 -- -- 64
2019-09-27 13:00:00 24.8 0 Calma 2 Nordeste 0 -- -- 61
2019-09-27 12:00:00 24.7 0 Calma 0 Calma 0 -- -- 64
2019-09-27 11:00:00 22.1 0 Calma 0 Calma 0 -- -- 76
2019-09-27 10:00:00 19 0 Calma 0 Calma 0 -- -- 93
2019-09-27 09:00:00 16.4 0 Calma 0 Calma 0 -- -- 100
2019-09-27 08:00:00 15 0 Calma 0 Calma 0 -- -- 100
2019-09-27 07:00:00 15.2 0 Calma 0 Calma 0 -- -- 100
2019-09-27 06:00:00 15.3 0 Calma 0 Calma 0 -- -- 100
2019-09-27 05:00:00 15.6 0 Calma -- -- 0 -- -- 100
2019-09-27 04:00:00 16 0 Calma 5 Oeste 0 -- -- 99
2019-09-27 03:00:00 16.3 0 Calma 6 Sudoeste 0 -- -- 98
2019-09-27 02:00:00 17 2 Noroeste 6 Noroeste 0 -- -- 97
2019-09-27 01:00:00 17.6 4 Noroeste 6 Noroeste 0 -- -- 97
2019-09-27 00:00:00 17.7 3 Norte 6 Oeste 0 -- -- 97
2019-09-26 23:00:00 18.3 4 Oeste 6 Oeste 0 -- -- 95
2019-09-26 22:00:00 18.9 3 Noroeste 4 Noroeste 0 -- -- 94
2019-09-26 21:00:00 19.6 0 Calma 5 Este 0 -- -- 91
2019-09-26 20:00:00 20.5 0 Calma 11 Este 0 -- -- 86
2019-09-26 19:00:00 21.7 7 Este 17 Este 0 -- -- 80
2019-09-26 18:00:00 23.2 8 Este 22 Sur 0 -- -- 73
2019-09-26 17:00:00 24.7 14 Sudeste 30 Sudeste 0 -- -- 67
2019-09-26 16:00:00 25 14 Sudeste 30 Sudeste 0 -- -- 65
2019-09-26 15:00:00 24.7 11 Sudeste 24 Sudeste 0 -- -- 62
2019-09-26 14:00:00 24.3 8 Sudeste 19 Sudeste 0 -- -- 63
2019-09-26 13:00:00 24.7 9 Sudeste 18 Sudeste 0 -- -- 64
2019-09-26 12:00:00 23.8 8 Sudeste 14 Sudeste 0 -- -- 66
2019-09-26 11:00:00 21.5 2 Sudeste 8 Sudeste 0 -- -- 74
2019-09-26 10:00:00 18.5 4 Oeste 9 Oeste 0 -- -- 85
2019-09-26 09:00:00 15.8 4 Oeste 10 Noroeste 0 -- -- 93
2019-09-26 08:00:00 14.3 5 Oeste 8 Oeste 0 -- -- 98
2019-09-26 07:00:00 14.7 0 Calma 5 Noroeste 0 -- -- 96
2019-09-26 06:00:00 15.5 4 Noroeste 8 Noroeste 0 -- -- 97
2019-09-26 05:00:00 15.6 0 Calma 9 Sudoeste 0 -- -- 96
2019-09-26 04:00:00 16.5 5 Sudoeste 8 Sudoeste 0 -- -- 93
2019-09-26 03:00:00 17.3 0 Calma -- -- 0 -- -- 95
2019-09-26 02:00:00 17.1 0 Calma -- -- 0 -- -- 97
2019-09-26 01:00:00 17.3 0 Calma -- -- 0 -- -- 94
2019-09-26 00:00:00 17.7 0 Calma -- -- 0 -- -- 92
2019-09-25 23:00:00 18.5 0 Calma -- -- 0 -- -- 89
2019-09-25 22:00:00 18.9 0 Calma -- -- 0 -- -- 84
2019-09-25 21:00:00 19.6 0 Calma -- -- 0 -- -- 80
2019-09-25 20:00:00 21.1 0 Calma 6 Sur 0 -- -- 72
2019-09-25 19:00:00 22.5 2 Sudoeste 7 Noroeste 0 -- -- 65
2019-09-25 18:00:00 24.3 3 Norte 15 Norte 0 -- -- 54
2019-09-25 17:00:00 24 5 Nordeste 16 Este 0 -- -- 54
2019-09-25 16:00:00 24.9 7 Norte 13 Norte 0 -- -- 52
2019-09-25 15:00:00 24 6 Norte 13 Norte 0 -- -- 52
2019-09-25 14:00:00 23.1 7 Noroeste 15 Noroeste 0 -- -- 53
2019-09-25 13:00:00 22.6 8 Noroeste 19 Oeste 0 -- -- 57
2019-09-25 12:00:00 21.3 8 Noroeste 18 Noroeste 0 -- -- 62
2019-09-25 11:00:00 20.8 2 Noroeste 6 Oeste 0 -- -- 66
2019-09-25 10:00:00 19.3 2 Oeste 4 Oeste 0 -- -- 77
2019-09-25 09:00:00 17.1 0 Calma 7 Este 0 -- -- 93
2019-09-25 08:00:00 15.3 3 Oeste 7 Noroeste 0 -- -- 95
2019-09-25 07:00:00 14.8 0 Calma 6 Sudeste 0 -- -- 97
2019-09-25 06:00:00 15.3 3 Nordeste 6 Este 0 -- -- 96
2019-09-25 05:00:00 16.1 0 Calma 10 Noroeste 0 -- -- 94
2019-09-25 04:00:00 16.9 5 Noroeste 9 Noroeste 0 -- -- 93
2019-09-25 03:00:00 17.2 4 Noroeste 7 Oeste 0 -- -- 98
2019-09-25 02:00:00 17.4 0 Calma 12 Norte 0 -- -- 98
2019-09-25 01:00:00 18.1 4 Noroeste 7 Noroeste 0 -- -- 98
2019-09-25 00:00:00 18.6 4 Noroeste 7 Oeste 0 -- -- 97
2019-09-24 23:00:00 19.2 0 Calma -- -- 0 -- -- 97
2019-09-24 22:00:00 18.8 0 Calma -- -- 0 -- -- 96
2019-09-24 21:00:00 19.4 0 Calma 10 Sur 0 -- -- 91
2019-09-24 20:00:00 20.4 8 Sudeste 18 Sudeste 0 -- -- 87
2019-09-24 19:00:00 22.5 12 Sudeste 22 Este 0 -- -- 78
2019-09-24 18:00:00 25.4 10 Sudeste 21 Sudeste 0 -- -- 73
2019-09-24 17:00:00 27.7 8 Sudeste 19 Sudeste 0 -- -- 61
2019-09-24 16:00:00 27 8 Sudeste 19 Sudeste 0 -- -- 60
2019-09-24 15:00:00 26 8 Sudeste 17 Sudeste 0 -- -- 65
2019-09-24 14:00:00 25.6 8 Sudeste 18 Sudeste 0 -- -- 66
2019-09-24 13:00:00 24.8 8 Sudeste 16 Sudeste 0 -- -- 70
2019-09-24 12:00:00 23.5 4 Nordeste 9 Este 0 -- -- 67
2019-09-24 11:00:00 21 0 Calma 6 Noroeste 0 -- -- 73
2019-09-24 10:00:00 18.1 2 Norte 6 Norte 0 -- -- 85
2019-09-24 09:00:00 15.2 3 Norte 7 Norte 0 -- -- 100
2019-09-24 08:00:00 14 0 Calma 0 Calma 0 -- -- 100
2019-09-24 07:00:00 14.2 0 Calma 6 Noroeste 0 -- -- 100
2019-09-24 06:00:00 14.5 0 Calma 8 Sudoeste 0 -- -- 99
2019-09-24 05:00:00 14.9 0 Calma 6 Noroeste 0 -- -- 98
2019-09-24 04:00:00 15.4 3 Noroeste 5 Noroeste 0 -- -- 98
2019-09-24 03:00:00 15.9 3 Oeste 8 Sudoeste 0 -- -- 97
2019-09-24 02:00:00 16 2 Sudoeste 9 Sudoeste 0 -- -- 96
2019-09-24 01:00:00 16.7 2 Noroeste 9 Noroeste 0 -- -- 93
2019-09-24 00:00:00 17.1 3 Noroeste 6 Noroeste 0 -- -- 92
2019-09-23 23:00:00 17.9 3 Oeste 6 Noroeste 0 -- -- 90
2019-09-23 22:00:00 18.5 0 Calma 6 Noroeste 0 -- -- 93
2019-09-23 21:00:00 18.9 0 Calma 6 Este 0 -- -- 90
2019-09-23 20:00:00 20.1 5 Este 11 Este 0 -- -- 84
2019-09-23 19:00:00 21.1 7 Este 20 Este 0 -- -- 77
2019-09-23 18:00:00 22.7 6 Este 21 Sudeste 0 -- -- 69
2019-09-23 17:00:00 24.2 9 Sudeste 27 Sudeste 0 -- -- 63
2019-09-23 16:00:00 25.2 13 Sudeste 25 Sudeste 0 -- -- 55
2019-09-23 15:00:00 25.3 7 Este 15 Sudeste 0 -- -- 57
2019-09-23 14:00:00 24.9 0 Calma 2 Sudeste 0 -- -- 57
2019-09-23 13:00:00 24.4 0 Calma 2 Sudeste 0 -- -- 59
2019-09-23 12:00:00 23.8 0 Calma 2 Sudeste 0 -- -- 56
2019-09-23 11:00:00 21.9 0 Calma 2 Oeste 0 -- -- 56
2019-09-23 10:00:00 20.5 0 Calma 0 Calma 0 -- -- 65
2019-09-23 09:00:00 19.3 0 Calma 0 Calma 0 -- -- 69
2019-09-23 08:00:00 17.9 0 Calma 0 Calma 0 -- -- 77
2019-09-23 07:00:00 17.7 0 Calma 0 Calma 0 -- -- 79
2019-09-23 06:00:00 18.2 0 Calma 9 Sudoeste 0 -- -- 78
2019-09-23 05:00:00 17.9 2 Oeste 6 Oeste 0 -- -- 78
2019-09-23 04:00:00 18.5 4 Oeste 6 Oeste 0 -- -- 79
2019-09-23 03:00:00 19.4 0 Calma 20 Norte 0 -- -- 76
2019-09-23 02:00:00 19.1 4 Noroeste 10 Noroeste 0 -- -- 71
2019-09-23 01:00:00 18.8 3 Noroeste 11 Noroeste 0 -- -- 79
2019-09-23 00:00:00 19.1 0 Calma 12 Noroeste 0 -- -- 78
2019-09-22 23:00:00 20.1 9 Noroeste 25 Noroeste 0 -- -- 69
2019-09-22 22:00:00 19.6 0 Calma 6 Nordeste 0 -- -- 75
2019-09-22 21:00:00 20.2 3 Noroeste 23 Noroeste 0 -- -- 73
2019-09-22 20:00:00 21.7 5 Noroeste 14 Norte 0 -- -- 71
2019-09-22 19:00:00 22.3 10 Norte 25 Nordeste 0 -- -- 74
2019-09-22 18:00:00 24.8 11 Norte 23 Norte 0 -- -- 77
2019-09-22 17:00:00 24.2 10 Este 24 Este 0 -- -- 86
2019-09-22 16:00:00 24.5 11 Este 23 Este 0 -- -- 84
2019-09-22 15:00:00 23.9 10 Este 22 Nordeste 0 -- -- 87
2019-09-22 14:00:00 23.6 11 Este 22 Este 0 -- -- 87
2019-09-22 13:00:00 24.1 8 Sudeste 18 Sudeste 0 -- -- 88
2019-09-22 12:00:00 22.9 5 Este 10 Sudeste 0 -- -- 90
2019-09-22 11:00:00 20.1 2 Oeste 8 Norte 0 -- -- 98
2019-09-22 10:00:00 18.3 5 Noroeste 9 Noroeste 0 -- -- 100
2019-09-22 09:00:00 17.5 4 Noroeste 8 Noroeste 0 -- -- 100
2019-09-22 08:00:00 16.2 0 Calma 6 Oeste 0 -- -- 100
2019-09-22 07:00:00 15.5 3 Este 7 Oeste 0 -- -- 100
2019-09-22 06:00:00 16.2 0 Calma 4 Oeste 0 -- -- 100
2019-09-22 05:00:00 16.6 0 Calma 10 Norte 0 -- -- 100
2019-09-22 04:00:00 17 3 Oeste 5 Noroeste 0 -- -- 100
2019-09-22 03:00:00 17.6 3 Sudoeste 6 Sur 0 -- -- 100
2019-09-22 02:00:00 17.7 0 Calma 4 Sudeste 0 -- -- 100
2019-09-22 01:00:00 17.7 0 Calma -- -- 0 -- -- 100
2019-09-22 00:00:00 18 0 Calma 5 Sudeste 0 -- -- 100
2019-09-21 23:00:00 19 0 Calma 8 Oeste 0 -- -- 100
2019-09-21 22:00:00 19.6 4 Oeste 8 Oeste 0 -- -- 100
2019-09-21 21:00:00 19.6 3 Norte 8 Noroeste 0 -- -- 100
2019-09-21 20:00:00 19.8 3 Noroeste 6 Norte 0 -- -- 100
2019-09-21 19:00:00 20.1 0 Calma 10 Oeste 0 -- -- 99
2019-09-21 18:00:00 19.6 3 Oeste 12 Sur 0.6 -- -- 100
2019-09-21 17:00:00 19.3 0 Calma 10 Sudoeste 2.6 -- -- 100
2019-09-21 16:00:00 19.5 5 Sur 15 Sudeste 0.4 -- -- 100
2019-09-21 15:00:00 19.7 8 Sur 31 Este 0.2 -- -- 100
2019-09-21 14:00:00 19.7 13 Este 31 Nordeste 0.2 -- -- 98
2019-09-21 13:00:00 20.5 12 Nordeste 38 Este 1.6 -- -- 100
2019-09-21 12:00:00 20.6 19 Este 35 Este 4.8 -- -- 100
2019-09-21 11:00:00 19.3 12 Sudeste 43 Sudeste 11.8 -- -- 100
2019-09-21 10:00:00 20.9 16 Sudeste 36 Este 1 -- -- 100
2019-09-21 09:00:00 20.5 9 Sudeste 27 Este 0.6 -- -- 100
2019-09-21 08:00:00 20.1 12 Este 32 Este 0 -- -- 100
2019-09-21 07:00:00 19.9 12 Norte 29 Nordeste 0.2 -- -- 100
2019-09-21 06:00:00 19.3 5 Norte 17 Oeste 21.8 -- -- 100
2019-09-21 05:00:00 19.3 3 Norte 9 Oeste 0.6 -- -- 96
2019-09-21 04:00:00 19.5 2 Noroeste 5 Noroeste 0 -- -- 97
2019-09-21 03:00:00 19.5 3 Noroeste 8 Oeste 0 -- -- 94
2019-09-21 02:00:00 20.1 3 Oeste 6 Oeste 0 -- -- 93
2019-09-21 01:00:00 20.9 3 Noroeste 6 Noroeste 0 -- -- 94
2019-09-21 00:00:00 21 3 Oeste 4 Oeste 0 -- -- 95
2019-09-20 23:00:00 21.1 0 Calma 11 Oeste 0 -- -- 95
2019-09-20 22:00:00 21.1 0 Calma 5 Este 0 -- -- 97
2019-09-20 21:00:00 20.8 2 Sudeste 9 Este 0 -- -- 94
2019-09-20 20:00:00 21.2 4 Este 13 Este 0 -- -- 88
2019-09-20 19:00:00 22.1 8 Este 23 Este 0 -- -- 82
2019-09-20 18:00:00 23.7 14 Este 28 Este 0 -- -- 79
2019-09-20 17:00:00 24.7 13 Este 26 Este 0 -- -- 75
2019-09-20 16:00:00 25.1 14 Este 25 Este 0 -- -- 77
2019-09-20 15:00:00 25.6 9 Este 23 Este 0 -- -- 75
2019-09-20 14:00:00 25 8 Este 18 Este 0 -- -- 77
2019-09-20 13:00:00 25.7 8 Este 21 Sudeste 0 -- -- 73
2019-09-20 12:00:00 24.7 8 Este 15 Sudeste 0 -- -- 76
2019-09-20 11:00:00 23.9 6 Este 13 Este 0 -- -- 77
2019-09-20 10:00:00 21 0 Calma 2 Oeste 0 -- -- 75
2019-09-20 09:00:00 17 0 Calma 2 Oeste 0 -- -- 92
2019-09-20 08:00:00 14.9 0 Calma 2 Oeste 0 -- -- 97
2019-09-20 07:00:00 14.9 0 Calma 0 Calma 0 -- -- 97
2019-09-20 06:00:00 15.4 0 Calma 8 Oeste 0 -- -- 95
2019-09-20 05:00:00 16.2 4 Oeste 9 Sudoeste 0 -- -- 93
2019-09-20 04:00:00 16.4 6 Sudoeste 10 Oeste 0 -- -- 92
2019-09-20 03:00:00 16.4 3 Oeste 7 Oeste 0 -- -- 92
2019-09-20 02:00:00 16.7 4 Noroeste 6 Norte 0 -- -- 92
2019-09-20 01:00:00 17.1 0 Calma 6 Sudoeste 0 -- -- 92
2019-09-20 00:00:00 17.8 3 Oeste 5 Oeste 0 -- -- 91
2019-09-19 23:00:00 18.4 3 Noroeste 6 Sudoeste 0 -- -- 89
2019-09-19 22:00:00 19.1 2 Sudoeste 7 Sur 0 -- -- 88
2019-09-19 21:00:00 19.7 4 Este 6 Nordeste 0 -- -- 86
2019-09-19 20:00:00 21 0 Calma 6 Sudeste 0 -- -- 82
2019-09-19 19:00:00 21.7 6 Sudeste 18 Sudeste 0 -- -- 76
2019-09-19 18:00:00 22.3 12 Sudeste 24 Sudeste 0 -- -- 73
2019-09-19 17:00:00 24.9 13 Sudeste 25 Sudeste 0 -- -- 65
2019-09-19 16:00:00 25.3 10 Sudeste 26 Sudeste 0 -- -- 65
2019-09-19 15:00:00 27.2 10 Sudeste 21 Sudeste 0 -- -- 61
2019-09-19 14:00:00 26.5 8 Sudeste 16 Sudeste 0 -- -- 61
2019-09-19 13:00:00 25.2 6 Sudeste 12 Sudeste 0 -- -- 65
2019-09-19 12:00:00 24.1 0 Calma 8 Este 0 -- -- 64
2019-09-19 11:00:00 22.7 2 Sudoeste 7 Sudoeste 0 -- -- 70
2019-09-19 10:00:00 20.2 0 Calma 9 Norte 0 -- -- 80
2019-09-19 09:00:00 17.5 6 Norte 9 Oeste 0 -- -- 88
2019-09-19 08:00:00 15.4 5 Sudoeste 10 Sudoeste 0 -- -- 94
2019-09-19 07:00:00 15.2 0 Calma 6 Noroeste 0 -- -- 93
2019-09-19 06:00:00 15.9 4 Sudoeste 11 Sur 0 -- -- 94
2019-09-19 05:00:00 16.1 0 Calma 6 Sudoeste 0 -- -- 93
2019-09-19 04:00:00 17 4 Sudoeste 7 Sudoeste 0 -- -- 89
2019-09-19 03:00:00 17.7 3 Oeste 9 Noroeste 0 -- -- 87
2019-09-19 02:00:00 18.5 5 Noroeste 10 Noroeste 0 -- -- 83
2019-09-19 01:00:00 18.2 5 Oeste 8 Oeste 0 -- -- 89
2019-09-19 00:00:00 18.8 0 Calma 9 Sudoeste 0 -- -- 88
2019-09-18 23:00:00 19.5 5 Sudoeste 8 Sudoeste 0 -- -- 88
2019-09-18 22:00:00 19.2 3 Noroeste 7 Norte 0 -- -- 87
2019-09-18 21:00:00 20.4 0 Calma 8 Noroeste 0 -- -- 80
2019-09-18 20:00:00 21.4 3 Oeste 16 Oeste 0 -- -- 76
2019-09-18 19:00:00 22 5 Sudeste 12 Oeste 0 -- -- 77
2019-09-18 18:00:00 23 7 Sur 23 Sudeste 0 -- -- 69
2019-09-18 17:00:00 25.4 11 Sudeste 20 Sudeste 0 -- -- 59
2019-09-18 16:00:00 29.5 8 Sur 19 Este 0 -- -- 44
2019-09-18 15:00:00 29.7 8 Este 24 Este 0 -- -- 43
2019-09-18 14:00:00 28.7 10 Este 23 Este 0 -- -- 45
2019-09-18 13:00:00 28.8 10 Este 23 Este 0 -- -- 45
2019-09-18 12:00:00 28.1 10 Nordeste 19 Nordeste 0 -- -- 46
2019-09-18 11:00:00 26.9 7 Norte 17 Norte 0 -- -- 46
2019-09-18 10:00:00 23.5 0 Calma 2 Norte 0 -- -- 64
2019-09-18 09:00:00 17.7 0 Calma 2 Oeste 0 -- -- 96
2019-09-18 08:00:00 16.7 0 Calma 0 Calma 0 -- -- 96
2019-09-18 07:00:00 17.2 0 Calma 0 Calma 0 -- -- 93
2019-09-18 06:00:00 17.7 0 Calma 2 Oeste 0 -- -- 91
2019-09-18 05:00:00 17.6 0 Calma -- -- 0 -- -- 94
2019-09-18 04:00:00 17.3 0 Calma 8 Sudoeste 0 -- -- 94
2019-09-18 03:00:00 17.5 0 Calma 5 Norte 0 -- -- 93
2019-09-18 02:00:00 17.7 0 Calma 6 Sudoeste 0 -- -- 93
2019-09-18 01:00:00 18.5 5 Sudoeste 8 Sudoeste 0 -- -- 90
2019-09-18 00:00:00 19.1 4 Noroeste 5 Sudoeste 0 -- -- 90